sensor_id;sensor_type;location;lat;lon;timestamp;P1;durP1;ratioP1;P2;durP2;ratioP2
6306;SDS011;3186;54.062;9.962;2023-03-14T00:00:03;17.57;;;4.37;;
6306;SDS011;3186;54.062;9.962;2023-03-14T00:02:34;19.70;;;4.03;;
6306;SDS011;3186;54.062;9.962;2023-03-14T00:05:00;20.77;;;4.03;;
6306;SDS011;3186;54.062;9.962;2023-03-14T00:07:31;22.60;;;5.37;;
6306;SDS011;3186;54.062;9.962;2023-03-14T00:10:00;22.70;;;4.70;;
6306;SDS011;3186;54.062;9.962;2023-03-14T00:12:29;17.60;;;4.23;;
6306;SDS011;3186;54.062;9.962;2023-03-14T00:14:55;21.17;;;4.77;;
6306;SDS011;3186;54.062;9.962;2023-03-14T00:17:21;22.50;;;4.50;;
6306;SDS011;3186;54.062;9.962;2023-03-14T00:19:48;21.23;;;3.97;;
6306;SDS011;3186;54.062;9.962;2023-03-14T00:22:17;21.37;;;4.77;;
6306;SDS011;3186;54.062;9.962;2023-03-14T00:24:43;23.73;;;4.80;;
6306;SDS011;3186;54.062;9.962;2023-03-14T00:27:09;16.07;;;3.67;;
6306;SDS011;3186;54.062;9.962;2023-03-14T00:29:34;13.60;;;4.60;;
6306;SDS011;3186;54.062;9.962;2023-03-14T00:32:00;14.30;;;3.20;;
6306;SDS011;3186;54.062;9.962;2023-03-14T00:34:30;22.40;;;4.40;;
6306;SDS011;3186;54.062;9.962;2023-03-14T00:36:56;23.63;;;5.37;;
6306;SDS011;3186;54.062;9.962;2023-03-14T00:39:22;14.93;;;4.13;;
6306;SDS011;3186;54.062;9.962;2023-03-14T00:41:49;17.60;;;4.10;;
6306;SDS011;3186;54.062;9.962;2023-03-14T00:44:15;26.67;;;5.30;;
6306;SDS011;3186;54.062;9.962;2023-03-14T00:46:41;16.93;;;4.20;;
6306;SDS011;3186;54.062;9.962;2023-03-14T00:49:07;18.87;;;4.27;;
6306;SDS011;3186;54.062;9.962;2023-03-14T00:51:33;18.73;;;3.90;;
6306;SDS011;3186;54.062;9.962;2023-03-14T00:53:59;14.67;;;4.43;;
6306;SDS011;3186;54.062;9.962;2023-03-14T00:56:26;16.73;;;3.90;;
6306;SDS011;3186;54.062;9.962;2023-03-14T00:58:55;18.53;;;3.97;;
6306;SDS011;3186;54.062;9.962;2023-03-14T01:01:21;21.23;;;4.73;;
6306;SDS011;3186;54.062;9.962;2023-03-14T01:03:50;19.37;;;4.57;;
6306;SDS011;3186;54.062;9.962;2023-03-14T01:06:18;18.07;;;4.30;;
6306;SDS011;3186;54.062;9.962;2023-03-14T01:08:49;16.93;;;3.70;;
6306;SDS011;3186;54.062;9.962;2023-03-14T01:11:16;23.40;;;4.70;;
6306;SDS011;3186;54.062;9.962;2023-03-14T01:13:53;23.93;;;4.20;;
6306;SDS011;3186;54.062;9.962;2023-03-14T01:16:20;11.57;;;3.60;;
6306;SDS011;3186;54.062;9.962;2023-03-14T01:18:47;14.27;;;3.80;;
6306;SDS011;3186;54.062;9.962;2023-03-14T01:21:16;13.90;;;3.83;;
6306;SDS011;3186;54.062;9.962;2023-03-14T01:23:44;21.37;;;4.27;;
6306;SDS011;3186;54.062;9.962;2023-03-14T01:26:11;18.07;;;4.20;;
6306;SDS011;3186;54.062;9.962;2023-03-14T01:28:39;19.43;;;4.03;;
6306;SDS011;3186;54.062;9.962;2023-03-14T01:31:05;20.83;;;4.53;;
6306;SDS011;3186;54.062;9.962;2023-03-14T01:33:33;20.57;;;4.07;;
6306;SDS011;3186;54.062;9.962;2023-03-14T01:36:00;18.07;;;3.80;;
6306;SDS011;3186;54.062;9.962;2023-03-14T01:38:28;19.90;;;4.50;;
6306;SDS011;3186;54.062;9.962;2023-03-14T01:40:55;19.30;;;4.43;;
6306;SDS011;3186;54.062;9.962;2023-03-14T01:43:21;21.63;;;4.03;;
6306;SDS011;3186;54.062;9.962;2023-03-14T01:48:32;16.93;;;3.87;;
6306;SDS011;3186;54.062;9.962;2023-03-14T01:51:06;15.20;;;4.27;;
6306;SDS011;3186;54.062;9.962;2023-03-14T01:53:36;26.77;;;4.77;;
6306;SDS011;3186;54.062;9.962;2023-03-14T01:56:04;15.90;;;3.67;;
6306;SDS011;3186;54.062;9.962;2023-03-14T01:58:31;19.17;;;4.93;;
6306;SDS011;3186;54.062;9.962;2023-03-14T02:01:02;16.13;;;3.80;;
6306;SDS011;3186;54.062;9.962;2023-03-14T02:03:29;15.70;;;4.10;;
6306;SDS011;3186;54.062;9.962;2023-03-14T02:05:59;17.07;;;4.20;;
6306;SDS011;3186;54.062;9.962;2023-03-14T02:08:31;17.13;;;3.57;;
6306;SDS011;3186;54.062;9.962;2023-03-14T02:11:02;15.03;;;4.10;;
6306;SDS011;3186;54.062;9.962;2023-03-14T02:13:42;18.43;;;4.10;;
6306;SDS011;3186;54.062;9.962;2023-03-14T02:16:29;17.53;;;4.33;;
6306;SDS011;3186;54.062;9.962;2023-03-14T02:19:18;15.17;;;3.67;;
6306;SDS011;3186;54.062;9.962;2023-03-14T02:22:10;12.60;;;3.47;;
6306;SDS011;3186;54.062;9.962;2023-03-14T02:24:58;15.67;;;3.70;;
6306;SDS011;3186;54.062;9.962;2023-03-14T02:27:38;21.60;;;4.37;;
6306;SDS011;3186;54.062;9.962;2023-03-14T02:30:08;18.03;;;4.60;;
6306;SDS011;3186;54.062;9.962;2023-03-14T02:32:41;22.57;;;4.60;;
6306;SDS011;3186;54.062;9.962;2023-03-14T02:35:14;20.77;;;4.20;;
6306;SDS011;3186;54.062;9.962;2023-03-14T02:37:46;13.97;;;3.07;;
6306;SDS011;3186;54.062;9.962;2023-03-14T02:40:13;16.40;;;4.13;;
6306;SDS011;3186;54.062;9.962;2023-03-14T02:42:41;19.33;;;3.30;;
6306;SDS011;3186;54.062;9.962;2023-03-14T02:47:34;23.73;;;4.10;;
6306;SDS011;3186;54.062;9.962;2023-03-14T02:52:41;17.13;;;4.17;;
6306;SDS011;3186;54.062;9.962;2023-03-14T02:55:07;13.07;;;3.60;;
6306;SDS011;3186;54.062;9.962;2023-03-14T02:57:35;16.03;;;4.07;;
6306;SDS011;3186;54.062;9.962;2023-03-14T03:00:01;16.17;;;3.70;;
6306;SDS011;3186;54.062;9.962;2023-03-14T03:02:34;16.63;;;4.27;;
6306;SDS011;3186;54.062;9.962;2023-03-14T03:05:00;17.67;;;3.83;;
6306;SDS011;3186;54.062;9.962;2023-03-14T03:07:26;19.67;;;3.73;;
6306;SDS011;3186;54.062;9.962;2023-03-14T03:09:53;20.00;;;4.13;;
6306;SDS011;3186;54.062;9.962;2023-03-14T03:12:19;14.37;;;3.43;;
6306;SDS011;3186;54.062;9.962;2023-03-14T03:14:45;11.93;;;3.73;;
6306;SDS011;3186;54.062;9.962;2023-03-14T03:17:11;15.33;;;3.47;;
6306;SDS011;3186;54.062;9.962;2023-03-14T03:19:37;11.37;;;2.80;;
6306;SDS011;3186;54.062;9.962;2023-03-14T03:22:03;13.13;;;3.43;;
6306;SDS011;3186;54.062;9.962;2023-03-14T03:24:29;10.93;;;3.33;;
6306;SDS011;3186;54.062;9.962;2023-03-14T03:26:55;17.00;;;4.03;;
6306;SDS011;3186;54.062;9.962;2023-03-14T03:29:21;12.03;;;4.07;;
6306;SDS011;3186;54.062;9.962;2023-03-14T03:31:47;15.00;;;4.37;;
6306;SDS011;3186;54.062;9.962;2023-03-14T03:34:13;20.13;;;4.50;;
6306;SDS011;3186;54.062;9.962;2023-03-14T03:36:40;15.10;;;4.07;;
6306;SDS011;3186;54.062;9.962;2023-03-14T03:39:06;12.90;;;4.57;;
6306;SDS011;3186;54.062;9.962;2023-03-14T03:41:32;12.97;;;4.80;;
6306;SDS011;3186;54.062;9.962;2023-03-14T03:43:59;11.57;;;4.43;;
6306;SDS011;3186;54.062;9.962;2023-03-14T03:46:25;13.07;;;5.33;;
6306;SDS011;3186;54.062;9.962;2023-03-14T03:48:55;11.90;;;4.73;;
6306;SDS011;3186;54.062;9.962;2023-03-14T03:51:22;12.83;;;5.50;;
6306;SDS011;3186;54.062;9.962;2023-03-14T03:53:48;13.97;;;4.93;;
6306;SDS011;3186;54.062;9.962;2023-03-14T03:56:18;13.70;;;5.27;;
6306;SDS011;3186;54.062;9.962;2023-03-14T03:58:44;8.50;;;5.30;;
6306;SDS011;3186;54.062;9.962;2023-03-14T04:01:10;7.67;;;3.93;;
6306;SDS011;3186;54.062;9.962;2023-03-14T04:03:37;7.33;;;3.90;;
6306;SDS011;3186;54.062;9.962;2023-03-14T04:06:07;7.40;;;4.43;;
6306;SDS011;3186;54.062;9.962;2023-03-14T04:08:37;8.07;;;4.33;;
6306;SDS011;3186;54.062;9.962;2023-03-14T04:11:04;11.80;;;5.43;;
6306;SDS011;3186;54.062;9.962;2023-03-14T04:13:45;11.60;;;5.97;;
6306;SDS011;3186;54.062;9.962;2023-03-14T04:16:13;10.43;;;6.27;;
6306;SDS011;3186;54.062;9.962;2023-03-14T04:18:41;13.73;;;5.80;;
6306;SDS011;3186;54.062;9.962;2023-03-14T04:21:07;8.47;;;5.67;;
6306;SDS011;3186;54.062;9.962;2023-03-14T04:23:43;11.37;;;6.10;;
6306;SDS011;3186;54.062;9.962;2023-03-14T04:26:09;12.50;;;6.73;;
6306;SDS011;3186;54.062;9.962;2023-03-14T04:28:39;13.67;;;6.37;;
6306;SDS011;3186;54.062;9.962;2023-03-14T04:31:08;8.23;;;5.27;;
6306;SDS011;3186;54.062;9.962;2023-03-14T04:33:39;7.27;;;5.10;;
6306;SDS011;3186;54.062;9.962;2023-03-14T04:36:05;9.90;;;5.40;;
6306;SDS011;3186;54.062;9.962;2023-03-14T04:38:33;8.03;;;4.70;;
6306;SDS011;3186;54.062;9.962;2023-03-14T04:40:59;6.47;;;3.87;;
6306;SDS011;3186;54.062;9.962;2023-03-14T04:43:30;6.53;;;3.70;;
6306;SDS011;3186;54.062;9.962;2023-03-14T04:46:02;4.07;;;3.50;;
6306;SDS011;3186;54.062;9.962;2023-03-14T04:48:28;6.73;;;3.10;;
6306;SDS011;3186;54.062;9.962;2023-03-14T04:50:54;6.50;;;2.50;;
6306;SDS011;3186;54.062;9.962;2023-03-14T04:53:20;8.03;;;2.77;;
6306;SDS011;3186;54.062;9.962;2023-03-14T04:55:50;5.70;;;2.27;;
6306;SDS011;3186;54.062;9.962;2023-03-14T04:58:19;6.90;;;2.03;;
6306;SDS011;3186;54.062;9.962;2023-03-14T05:00:46;4.30;;;1.67;;
6306;SDS011;3186;54.062;9.962;2023-03-14T05:03:32;2.80;;;1.60;;
6306;SDS011;3186;54.062;9.962;2023-03-14T05:06:18;5.10;;;1.53;;
6306;SDS011;3186;54.062;9.962;2023-03-14T05:09:03;4.20;;;1.53;;
6306;SDS011;3186;54.062;9.962;2023-03-14T05:11:51;5.07;;;1.40;;
6306;SDS011;3186;54.062;9.962;2023-03-14T05:14:46;5.27;;;1.67;;
6306;SDS011;3186;54.062;9.962;2023-03-14T05:17:24;9.00;;;2.07;;
6306;SDS011;3186;54.062;9.962;2023-03-14T05:20:22;5.30;;;1.70;;
6306;SDS011;3186;54.062;9.962;2023-03-14T05:23:06;3.83;;;1.50;;
6306;SDS011;3186;54.062;9.962;2023-03-14T05:25:52;5.63;;;1.33;;
6306;SDS011;3186;54.062;9.962;2023-03-14T05:28:32;4.97;;;1.60;;
6306;SDS011;3186;54.062;9.962;2023-03-14T05:31:10;7.73;;;2.07;;
6306;SDS011;3186;54.062;9.962;2023-03-14T05:33:45;5.93;;;1.53;;
6306;SDS011;3186;54.062;9.962;2023-03-14T05:36:33;2.40;;;1.50;;
6306;SDS011;3186;54.062;9.962;2023-03-14T05:38:59;7.90;;;1.93;;
6306;SDS011;3186;54.062;9.962;2023-03-14T05:41:44;6.37;;;2.73;;
6306;SDS011;3186;54.062;9.962;2023-03-14T05:44:25;7.20;;;2.27;;
6306;SDS011;3186;54.062;9.962;2023-03-14T05:46:54;4.30;;;2.07;;
6306;SDS011;3186;54.062;9.962;2023-03-14T05:49:33;5.07;;;2.17;;
6306;SDS011;3186;54.062;9.962;2023-03-14T05:52:10;5.93;;;2.17;;
6306;SDS011;3186;54.062;9.962;2023-03-14T05:54:54;8.50;;;2.80;;
6306;SDS011;3186;54.062;9.962;2023-03-14T05:57:38;9.73;;;2.40;;
6306;SDS011;3186;54.062;9.962;2023-03-14T06:00:40;5.90;;;2.13;;
6306;SDS011;3186;54.062;9.962;2023-03-14T06:03:38;9.33;;;2.77;;
6306;SDS011;3186;54.062;9.962;2023-03-14T06:06:05;8.83;;;2.70;;
6306;SDS011;3186;54.062;9.962;2023-03-14T06:08:31;10.20;;;2.33;;
6306;SDS011;3186;54.062;9.962;2023-03-14T06:10:57;9.40;;;3.03;;
6306;SDS011;3186;54.062;9.962;2023-03-14T06:13:28;5.43;;;2.27;;
6306;SDS011;3186;54.062;9.962;2023-03-14T06:15:54;10.33;;;3.37;;
6306;SDS011;3186;54.062;9.962;2023-03-14T06:18:20;7.47;;;2.90;;
6306;SDS011;3186;54.062;9.962;2023-03-14T06:20:46;8.70;;;2.77;;
6306;SDS011;3186;54.062;9.962;2023-03-14T06:23:20;4.47;;;2.57;;
6306;SDS011;3186;54.062;9.962;2023-03-14T06:25:46;8.67;;;3.00;;
6306;SDS011;3186;54.062;9.962;2023-03-14T06:28:12;10.90;;;3.07;;
6306;SDS011;3186;54.062;9.962;2023-03-14T06:30:38;10.07;;;3.07;;
6306;SDS011;3186;54.062;9.962;2023-03-14T06:33:07;5.90;;;3.17;;
6306;SDS011;3186;54.062;9.962;2023-03-14T06:35:40;10.97;;;3.10;;
6306;SDS011;3186;54.062;9.962;2023-03-14T06:38:13;9.50;;;3.33;;
6306;SDS011;3186;54.062;9.962;2023-03-14T06:40:40;8.20;;;2.93;;
6306;SDS011;3186;54.062;9.962;2023-03-14T06:43:10;10.97;;;3.30;;
6306;SDS011;3186;54.062;9.962;2023-03-14T06:45:38;6.87;;;3.13;;
6306;SDS011;3186;54.062;9.962;2023-03-14T06:48:05;10.03;;;3.10;;
6306;SDS011;3186;54.062;9.962;2023-03-14T06:50:43;8.30;;;3.27;;
6306;SDS011;3186;54.062;9.962;2023-03-14T06:53:09;9.30;;;3.00;;
6306;SDS011;3186;54.062;9.962;2023-03-14T06:55:38;6.70;;;3.20;;
6306;SDS011;3186;54.062;9.962;2023-03-14T06:58:06;9.17;;;2.87;;
6306;SDS011;3186;54.062;9.962;2023-03-14T07:00:38;6.67;;;3.07;;
6306;SDS011;3186;54.062;9.962;2023-03-14T07:03:04;6.60;;;2.90;;
6306;SDS011;3186;54.062;9.962;2023-03-14T07:05:37;6.17;;;2.80;;
6306;SDS011;3186;54.062;9.962;2023-03-14T07:08:06;5.83;;;3.27;;
6306;SDS011;3186;54.062;9.962;2023-03-14T07:10:34;7.63;;;3.10;;
6306;SDS011;3186;54.062;9.962;2023-03-14T07:13:00;6.80;;;2.70;;
6306;SDS011;3186;54.062;9.962;2023-03-14T07:15:29;8.10;;;3.10;;
6306;SDS011;3186;54.062;9.962;2023-03-14T07:18:00;4.90;;;2.53;;
6306;SDS011;3186;54.062;9.962;2023-03-14T07:20:28;6.70;;;2.80;;
6306;SDS011;3186;54.062;9.962;2023-03-14T07:22:55;8.03;;;3.13;;
6306;SDS011;3186;54.062;9.962;2023-03-14T07:25:33;9.63;;;2.70;;
6306;SDS011;3186;54.062;9.962;2023-03-14T07:27:59;5.20;;;2.90;;
6306;SDS011;3186;54.062;9.962;2023-03-14T07:30:25;4.83;;;2.60;;
6306;SDS011;3186;54.062;9.962;2023-03-14T07:32:52;8.27;;;2.93;;
6306;SDS011;3186;54.062;9.962;2023-03-14T07:35:20;8.23;;;2.97;;
6306;SDS011;3186;54.062;9.962;2023-03-14T07:37:46;6.23;;;2.90;;
6306;SDS011;3186;54.062;9.962;2023-03-14T07:40:13;7.93;;;3.20;;
6306;SDS011;3186;54.062;9.962;2023-03-14T07:42:43;6.63;;;2.63;;
6306;SDS011;3186;54.062;9.962;2023-03-14T07:45:24;8.27;;;2.90;;
6306;SDS011;3186;54.062;9.962;2023-03-14T07:47:50;6.53;;;3.00;;
6306;SDS011;3186;54.062;9.962;2023-03-14T07:50:16;5.53;;;3.17;;
6306;SDS011;3186;54.062;9.962;2023-03-14T07:52:42;8.67;;;4.33;;
6306;SDS011;3186;54.062;9.962;2023-03-14T07:55:08;6.07;;;3.30;;
6306;SDS011;3186;54.062;9.962;2023-03-14T07:57:34;6.73;;;2.93;;
6306;SDS011;3186;54.062;9.962;2023-03-14T08:00:00;8.30;;;2.93;;
6306;SDS011;3186;54.062;9.962;2023-03-14T08:02:26;13.43;;;3.43;;
6306;SDS011;3186;54.062;9.962;2023-03-14T08:04:52;9.47;;;3.27;;
6306;SDS011;3186;54.062;9.962;2023-03-14T08:07:17;16.07;;;4.10;;
6306;SDS011;3186;54.062;9.962;2023-03-14T08:09:43;7.60;;;3.17;;
6306;SDS011;3186;54.062;9.962;2023-03-14T08:12:09;11.50;;;3.00;;
6306;SDS011;3186;54.062;9.962;2023-03-14T08:14:35;7.83;;;2.70;;
6306;SDS011;3186;54.062;9.962;2023-03-14T08:17:01;5.87;;;2.80;;
6306;SDS011;3186;54.062;9.962;2023-03-14T08:19:27;6.80;;;2.60;;
6306;SDS011;3186;54.062;9.962;2023-03-14T08:21:53;10.10;;;3.00;;
6306;SDS011;3186;54.062;9.962;2023-03-14T08:24:19;8.73;;;3.33;;
6306;SDS011;3186;54.062;9.962;2023-03-14T08:26:45;9.40;;;3.20;;
6306;SDS011;3186;54.062;9.962;2023-03-14T08:29:11;6.17;;;3.03;;
6306;SDS011;3186;54.062;9.962;2023-03-14T08:31:38;11.17;;;2.73;;
6306;SDS011;3186;54.062;9.962;2023-03-14T08:34:04;5.30;;;3.17;;
6306;SDS011;3186;54.062;9.962;2023-03-14T08:36:31;9.53;;;3.13;;
6306;SDS011;3186;54.062;9.962;2023-03-14T08:38:58;7.97;;;2.90;;
6306;SDS011;3186;54.062;9.962;2023-03-14T08:41:24;7.07;;;2.83;;
6306;SDS011;3186;54.062;9.962;2023-03-14T08:43:50;9.40;;;3.60;;
6306;SDS011;3186;54.062;9.962;2023-03-14T08:46:16;12.67;;;4.07;;
6306;SDS011;3186;54.062;9.962;2023-03-14T08:48:42;6.87;;;2.80;;
6306;SDS011;3186;54.062;9.962;2023-03-14T08:51:08;5.47;;;2.90;;
6306;SDS011;3186;54.062;9.962;2023-03-14T08:53:36;7.47;;;2.80;;
6306;SDS011;3186;54.062;9.962;2023-03-14T08:56:02;5.53;;;3.10;;
6306;SDS011;3186;54.062;9.962;2023-03-14T08:58:30;7.47;;;3.43;;
6306;SDS011;3186;54.062;9.962;2023-03-14T09:00:57;5.50;;;2.90;;
6306;SDS011;3186;54.062;9.962;2023-03-14T09:03:23;8.07;;;3.47;;
6306;SDS011;3186;54.062;9.962;2023-03-14T09:05:50;8.30;;;3.20;;
6306;SDS011;3186;54.062;9.962;2023-03-14T09:08:17;8.00;;;3.37;;
6306;SDS011;3186;54.062;9.962;2023-03-14T09:10:43;8.03;;;3.67;;
6306;SDS011;3186;54.062;9.962;2023-03-14T09:13:08;5.70;;;2.93;;
6306;SDS011;3186;54.062;9.962;2023-03-14T09:15:34;9.70;;;2.87;;
6306;SDS011;3186;54.062;9.962;2023-03-14T09:18:00;3.53;;;1.30;;
6306;SDS011;3186;54.062;9.962;2023-03-14T09:20:26;4.97;;;1.80;;
6306;SDS011;3186;54.062;9.962;2023-03-14T09:22:52;1.97;;;0.80;;
6306;SDS011;3186;54.062;9.962;2023-03-14T09:25:18;1.43;;;1.00;;
6306;SDS011;3186;54.062;9.962;2023-03-14T09:27:44;1.00;;;0.60;;
6306;SDS011;3186;54.062;9.962;2023-03-14T09:30:10;0.90;;;0.80;;
6306;SDS011;3186;54.062;9.962;2023-03-14T09:32:36;2.33;;;0.77;;
6306;SDS011;3186;54.062;9.962;2023-03-14T09:35:03;1.43;;;0.83;;
6306;SDS011;3186;54.062;9.962;2023-03-14T09:37:29;3.13;;;1.10;;
6306;SDS011;3186;54.062;9.962;2023-03-14T09:39:55;2.10;;;1.00;;
6306;SDS011;3186;54.062;9.962;2023-03-14T09:42:22;1.00;;;0.90;;
6306;SDS011;3186;54.062;9.962;2023-03-14T09:44:57;3.40;;;0.97;;
6306;SDS011;3186;54.062;9.962;2023-03-14T09:47:27;2.07;;;0.83;;
6306;SDS011;3186;54.062;9.962;2023-03-14T09:49:53;1.77;;;0.90;;
6306;SDS011;3186;54.062;9.962;2023-03-14T09:52:38;2.37;;;1.10;;
6306;SDS011;3186;54.062;9.962;2023-03-14T09:55:12;1.33;;;0.73;;
6306;SDS011;3186;54.062;9.962;2023-03-14T09:57:41;2.90;;;0.90;;
6306;SDS011;3186;54.062;9.962;2023-03-14T10:02:40;2.77;;;1.13;;
6306;SDS011;3186;54.062;9.962;2023-03-14T10:05:15;1.93;;;1.20;;
6306;SDS011;3186;54.062;9.962;2023-03-14T10:07:50;2.30;;;0.93;;
6306;SDS011;3186;54.062;9.962;2023-03-14T10:10:18;1.83;;;0.87;;
6306;SDS011;3186;54.062;9.962;2023-03-14T10:12:46;1.23;;;0.90;;
6306;SDS011;3186;54.062;9.962;2023-03-14T10:15:22;0.73;;;0.70;;
6306;SDS011;3186;54.062;9.962;2023-03-14T10:17:58;1.90;;;0.83;;
6306;SDS011;3186;54.062;9.962;2023-03-14T10:20:27;3.90;;;1.00;;
6306;SDS011;3186;54.062;9.962;2023-03-14T10:23:18;3.53;;;0.93;;
6306;SDS011;3186;54.062;9.962;2023-03-14T10:26:01;0.60;;;0.60;;
6306;SDS011;3186;54.062;9.962;2023-03-14T10:28:39;1.83;;;0.83;;
6306;SDS011;3186;54.062;9.962;2023-03-14T10:31:05;2.60;;;1.10;;
6306;SDS011;3186;54.062;9.962;2023-03-14T10:33:33;3.30;;;1.17;;
6306;SDS011;3186;54.062;9.962;2023-03-14T10:36:05;2.57;;;1.20;;
6306;SDS011;3186;54.062;9.962;2023-03-14T10:38:41;1.27;;;1.10;;
6306;SDS011;3186;54.062;9.962;2023-03-14T10:44:05;5.03;;;2.23;;
6306;SDS011;3186;54.062;9.962;2023-03-14T10:46:35;5.10;;;2.60;;
6306;SDS011;3186;54.062;9.962;2023-03-14T10:52:02;5.20;;;1.80;;
6306;SDS011;3186;54.062;9.962;2023-03-14T10:54:40;4.43;;;1.73;;
6306;SDS011;3186;54.062;9.962;2023-03-14T10:57:06;2.67;;;1.57;;
6306;SDS011;3186;54.062;9.962;2023-03-14T10:59:36;3.97;;;1.67;;
6306;SDS011;3186;54.062;9.962;2023-03-14T11:02:12;6.37;;;1.43;;
6306;SDS011;3186;54.062;9.962;2023-03-14T11:05:34;3.17;;;1.20;;
6306;SDS011;3186;54.062;9.962;2023-03-14T11:08:02;5.77;;;1.73;;
6306;SDS011;3186;54.062;9.962;2023-03-14T11:10:37;3.87;;;1.43;;
6306;SDS011;3186;54.062;9.962;2023-03-14T11:21:51;3.97;;;1.50;;
6306;SDS011;3186;54.062;9.962;2023-03-14T11:32:13;4.27;;;1.20;;
6306;SDS011;3186;54.062;9.962;2023-03-14T11:37:20;4.13;;;1.23;;
6306;SDS011;3186;54.062;9.962;2023-03-14T11:40:18;9.40;;;1.40;;
6306;SDS011;3186;54.062;9.962;2023-03-14T11:42:49;8.00;;;1.73;;
6306;SDS011;3186;54.062;9.962;2023-03-14T11:45:38;9.93;;;2.50;;
6306;SDS011;3186;54.062;9.962;2023-03-14T11:48:17;6.00;;;1.77;;
6306;SDS011;3186;54.062;9.962;2023-03-14T11:50:49;8.33;;;2.10;;
6306;SDS011;3186;54.062;9.962;2023-03-14T11:53:23;8.17;;;1.83;;
6306;SDS011;3186;54.062;9.962;2023-03-14T11:56:47;7.33;;;1.37;;
6306;SDS011;3186;54.062;9.962;2023-03-14T11:59:13;10.20;;;2.13;;
6306;SDS011;3186;54.062;9.962;2023-03-14T12:01:52;6.83;;;1.80;;
6306;SDS011;3186;54.062;9.962;2023-03-14T12:07:45;8.90;;;1.63;;
6306;SDS011;3186;54.062;9.962;2023-03-14T12:10:08;4.77;;;1.70;;
6306;SDS011;3186;54.062;9.962;2023-03-14T12:12:34;7.80;;;2.17;;
6306;SDS011;3186;54.062;9.962;2023-03-14T12:15:01;10.73;;;2.20;;
6306;SDS011;3186;54.062;9.962;2023-03-14T12:20:27;8.83;;;1.80;;
6306;SDS011;3186;54.062;9.962;2023-03-14T12:25:20;14.17;;;2.20;;
6306;SDS011;3186;54.062;9.962;2023-03-14T12:30:30;11.00;;;2.67;;
6306;SDS011;3186;54.062;9.962;2023-03-14T12:35:50;11.67;;;2.67;;
6306;SDS011;3186;54.062;9.962;2023-03-14T12:38:21;13.03;;;2.93;;
6306;SDS011;3186;54.062;9.962;2023-03-14T12:40:56;15.10;;;2.20;;
6306;SDS011;3186;54.062;9.962;2023-03-14T12:43:28;10.03;;;2.13;;
6306;SDS011;3186;54.062;9.962;2023-03-14T12:48:40;14.83;;;2.73;;
6306;SDS011;3186;54.062;9.962;2023-03-14T12:51:18;9.80;;;2.13;;
6306;SDS011;3186;54.062;9.962;2023-03-14T13:01:53;9.73;;;2.70;;
6306;SDS011;3186;54.062;9.962;2023-03-14T13:04:44;13.07;;;2.73;;
6306;SDS011;3186;54.062;9.962;2023-03-14T13:10:24;14.33;;;2.70;;
6306;SDS011;3186;54.062;9.962;2023-03-14T13:15:39;13.77;;;2.50;;
6306;SDS011;3186;54.062;9.962;2023-03-14T13:18:12;8.93;;;1.93;;
6306;SDS011;3186;54.062;9.962;2023-03-14T13:20:44;12.27;;;2.33;;
6306;SDS011;3186;54.062;9.962;2023-03-14T13:23:24;12.00;;;2.80;;
6306;SDS011;3186;54.062;9.962;2023-03-14T13:25:52;10.57;;;2.63;;
6306;SDS011;3186;54.062;9.962;2023-03-14T13:28:18;8.47;;;1.73;;
6306;SDS011;3186;54.062;9.962;2023-03-14T13:30:49;9.17;;;1.93;;
6306;SDS011;3186;54.062;9.962;2023-03-14T13:33:20;9.67;;;1.60;;
6306;SDS011;3186;54.062;9.962;2023-03-14T13:35:48;6.80;;;1.77;;
6306;SDS011;3186;54.062;9.962;2023-03-14T13:38:21;9.17;;;2.00;;
6306;SDS011;3186;54.062;9.962;2023-03-14T13:40:49;6.30;;;1.50;;
6306;SDS011;3186;54.062;9.962;2023-03-14T13:43:18;8.43;;;2.13;;
6306;SDS011;3186;54.062;9.962;2023-03-14T13:46:03;9.57;;;1.90;;
6306;SDS011;3186;54.062;9.962;2023-03-14T13:48:49;13.00;;;2.37;;
6306;SDS011;3186;54.062;9.962;2023-03-14T13:51:27;8.93;;;1.87;;
6306;SDS011;3186;54.062;9.962;2023-03-14T13:53:56;7.47;;;2.17;;
6306;SDS011;3186;54.062;9.962;2023-03-14T13:56:25;7.10;;;1.80;;
6306;SDS011;3186;54.062;9.962;2023-03-14T13:58:56;4.73;;;1.40;;
6306;SDS011;3186;54.062;9.962;2023-03-14T14:01:29;8.77;;;2.03;;
6306;SDS011;3186;54.062;9.962;2023-03-14T14:04:01;5.27;;;1.40;;
6306;SDS011;3186;54.062;9.962;2023-03-14T14:06:38;9.20;;;1.93;;
6306;SDS011;3186;54.062;9.962;2023-03-14T14:09:43;7.87;;;2.10;;
6306;SDS011;3186;54.062;9.962;2023-03-14T14:12:05;10.30;;;2.10;;
6306;SDS011;3186;54.062;9.962;2023-03-14T14:17:24;8.27;;;2.00;;
6306;SDS011;3186;54.062;9.962;2023-03-14T14:19:54;9.47;;;2.07;;
6306;SDS011;3186;54.062;9.962;2023-03-14T14:22:21;8.30;;;2.23;;
6306;SDS011;3186;54.062;9.962;2023-03-14T14:24:47;6.90;;;1.83;;
6306;SDS011;3186;54.062;9.962;2023-03-14T14:27:15;10.97;;;2.17;;
6306;SDS011;3186;54.062;9.962;2023-03-14T14:29:43;8.70;;;1.97;;
6306;SDS011;3186;54.062;9.962;2023-03-14T14:32:14;6.07;;;2.07;;
6306;SDS011;3186;54.062;9.962;2023-03-14T14:37:23;9.40;;;2.10;;
6306;SDS011;3186;54.062;9.962;2023-03-14T14:39:50;10.27;;;1.93;;
6306;SDS011;3186;54.062;9.962;2023-03-14T14:42:19;5.80;;;1.50;;
6306;SDS011;3186;54.062;9.962;2023-03-14T14:44:50;3.97;;;1.50;;
6306;SDS011;3186;54.062;9.962;2023-03-14T14:47:21;6.50;;;1.80;;
6306;SDS011;3186;54.062;9.962;2023-03-14T14:49:50;5.33;;;1.70;;
6306;SDS011;3186;54.062;9.962;2023-03-14T14:52:18;7.70;;;1.90;;
6306;SDS011;3186;54.062;9.962;2023-03-14T14:54:53;8.17;;;1.93;;
6306;SDS011;3186;54.062;9.962;2023-03-14T14:57:24;6.57;;;1.60;;
6306;SDS011;3186;54.062;9.962;2023-03-14T14:59:54;8.30;;;2.03;;
6306;SDS011;3186;54.062;9.962;2023-03-14T15:02:35;10.67;;;2.10;;
6306;SDS011;3186;54.062;9.962;2023-03-14T15:05:17;12.47;;;2.70;;
6306;SDS011;3186;54.062;9.962;2023-03-14T15:07:45;11.60;;;2.40;;
6306;SDS011;3186;54.062;9.962;2023-03-14T15:10:12;8.20;;;1.87;;
6306;SDS011;3186;54.062;9.962;2023-03-14T15:12:40;8.77;;;1.83;;
6306;SDS011;3186;54.062;9.962;2023-03-14T15:15:06;9.63;;;1.73;;
6306;SDS011;3186;54.062;9.962;2023-03-14T15:17:34;9.43;;;2.40;;
6306;SDS011;3186;54.062;9.962;2023-03-14T15:20:02;11.40;;;1.80;;
6306;SDS011;3186;54.062;9.962;2023-03-14T15:22:29;12.83;;;2.80;;
6306;SDS011;3186;54.062;9.962;2023-03-14T15:24:55;10.30;;;2.57;;
6306;SDS011;3186;54.062;9.962;2023-03-14T15:27:21;10.33;;;1.93;;
6306;SDS011;3186;54.062;9.962;2023-03-14T15:29:48;11.83;;;2.27;;
6306;SDS011;3186;54.062;9.962;2023-03-14T15:32:15;10.73;;;3.47;;
6306;SDS011;3186;54.062;9.962;2023-03-14T15:34:43;10.87;;;2.20;;
6306;SDS011;3186;54.062;9.962;2023-03-14T15:37:10;7.33;;;2.33;;
6306;SDS011;3186;54.062;9.962;2023-03-14T15:39:38;11.20;;;2.20;;
6306;SDS011;3186;54.062;9.962;2023-03-14T15:42:05;8.63;;;2.27;;
6306;SDS011;3186;54.062;9.962;2023-03-14T15:44:31;13.57;;;2.70;;
6306;SDS011;3186;54.062;9.962;2023-03-14T15:46:57;10.60;;;1.90;;
6306;SDS011;3186;54.062;9.962;2023-03-14T15:49:22;11.60;;;2.73;;
6306;SDS011;3186;54.062;9.962;2023-03-14T15:51:48;12.93;;;2.57;;
6306;SDS011;3186;54.062;9.962;2023-03-14T15:54:14;7.90;;;1.93;;
6306;SDS011;3186;54.062;9.962;2023-03-14T15:56:40;7.57;;;2.23;;
6306;SDS011;3186;54.062;9.962;2023-03-14T15:59:06;9.73;;;2.50;;
6306;SDS011;3186;54.062;9.962;2023-03-14T16:01:32;8.60;;;2.43;;
6306;SDS011;3186;54.062;9.962;2023-03-14T16:03:58;7.47;;;1.83;;
6306;SDS011;3186;54.062;9.962;2023-03-14T16:06:23;13.00;;;2.40;;
6306;SDS011;3186;54.062;9.962;2023-03-14T16:08:49;9.97;;;2.23;;
6306;SDS011;3186;54.062;9.962;2023-03-14T16:11:15;13.00;;;2.27;;
6306;SDS011;3186;54.062;9.962;2023-03-14T16:13:42;8.40;;;2.10;;
6306;SDS011;3186;54.062;9.962;2023-03-14T16:16:08;6.70;;;1.67;;
6306;SDS011;3186;54.062;9.962;2023-03-14T16:18:37;12.20;;;3.00;;
6306;SDS011;3186;54.062;9.962;2023-03-14T16:21:08;12.07;;;2.50;;
6306;SDS011;3186;54.062;9.962;2023-03-14T16:23:37;10.43;;;2.60;;
6306;SDS011;3186;54.062;9.962;2023-03-14T16:26:07;6.63;;;2.30;;
6306;SDS011;3186;54.062;9.962;2023-03-14T16:28:35;11.30;;;2.83;;
6306;SDS011;3186;54.062;9.962;2023-03-14T16:31:05;9.67;;;3.13;;
6306;SDS011;3186;54.062;9.962;2023-03-14T16:33:36;12.20;;;2.53;;
6306;SDS011;3186;54.062;9.962;2023-03-14T16:36:04;8.60;;;2.43;;
6306;SDS011;3186;54.062;9.962;2023-03-14T16:38:34;12.17;;;2.67;;
6306;SDS011;3186;54.062;9.962;2023-03-14T16:41:22;13.43;;;2.80;;